AirNav   Everest Fuels
 
 1138 users online  

60CO Valley View Hospital Heliport
Glenwood Springs, Colorado, USA

GOING TO GLENWOOD SPRINGS?


FAA INFORMATION EFFECTIVE 26 JANUARY 2023

Location

FAA Identifier: 60CO
Lat/Long: 39-31-59.0300N 107-19-20.8100W
39-31.983833N 107-19.346833W
39.5330639,-107.3224472
(estimated)
Elevation: 5855 ft. / 1785 m (estimated)
From city: 1 mile S of GLENWOOD SPRINGS, CO
Time zone: UTC -7 (UTC -6 during Daylight Saving Time)
Zip code: 81601

Heliport Operations

Heliport use: Private use. Permission required prior to landing
Activation date: 03/2010
Control tower: no
ARTCC: DENVER CENTER
FSS: DENVER FLIGHT SERVICE STATION
Attendance: CONTINUOUS
Wind indicator: lighted
Segmented circle: no
Lights: SS-SR

Heliport Communications

WX ASOS at RIL (19 nm W): 135.275 (970-625-2206)
WX AWOS-3PT at EGE (20 nm E): 135.575 (970-524-7386)

Nearby radio navigation aids

VOR radial/distance  VOR name  Freq  Var
SXWr237/16.4SNOW VOR/DME109.2012E
RILr079/18.4RIFLE VOR/DME113.3510E
DBLr274/20.6RED TABLE VOR/DME113.0012E

Heliport Services

Runway Information

Helipad H1

Dimensions: 45 x 45 ft. / 14 x 14 m
Surface: mats, in good condition
Runway edge lights: PERI
Latitude: 39-31.983833N
Longitude: 107-19.346833W
Elevation: 5855.0 ft.
Traffic pattern: leftleft

Heliport Ownership and Management from official FAA records

Ownership: Privately-owned
Owner: VALLEY VIEW HOSPITAL ASSOCIATION
1906 BLAKE AVE
GLENWOOD SPRINGS, CO 81601
Phone 970-384-6600
Manager: JOSH ANDERSON
1906 BLAKE AVE
GLENWOOD SPRINGS, CO 81601
Phone 970-987-0504
ADDITIONAL CONTACT: ROB SMITH, 970-384-6967, ROBERT.SMITH@VVH.ORG

Additional Remarks

FOR CD CTC ASPEN APCH AT 970-925-6898, WHEN APCH CLSD CTC DENVER ARTCC AT 303-651-4257.

Instrument Procedures

There are no published instrument procedures at 60CO.

Some nearby airports with instrument procedures:

KRIL - Rifle Garfield County Airport (19 nm W)
KEGE - Eagle County Regional Airport (20 nm E)
KASE - Aspen-Pitkin County Airport/Sardy Field (28 nm SE)
KEEO - Meeker Coulter Field Airport (40 nm NW)
KLXV - Lake County Airport (50 nm E)
 
Loc | Ops | Rwys | IFR | FBO | Links
Com | Nav | Svcs | Stats | Notes

AirBoss

 
Aerial photo
No photo
 
Sectional chart

 
Airport distance calculator
Flying to Valley View Hospital Heliport? Find the distance to fly.

From to 60CO

Sunrise and sunset
Times for 08-Feb-2023
 Local
(UTC-7)
 Zulu
(UTC)
Morning civil twilight06:4313:43
Sunrise07:1114:11
Sunset17:3600:36
Evening civil twilight18:0401:04

Current date and time
Zulu (UTC)  09-Feb-2023 03:07:48
Local (UTC-7)  08-Feb-2023 20:07:48
 
METAR
K5SM 
7nm S 
090255Z AUTO 26016G33KT 210V290 3/4SM -SN OVC001 M11/M12 A3002 RMK AO2
KRIL 
19nm W 
090300Z AUTO 30012KT 9SM FEW023 BKN040 OVC048 M02/M06 A3015 RMK AO2 SNE00 P0000 T10171056
KEGE 
20nm E 
090259Z AUTO 34015G25KT 1 3/4SM -SN FEW012 BKN033 OVC055 M03/M06 A3010 RMK AO2 P0000 FZRANO
TAF
KRIL 
19nm W 
090103Z 0901/0924 30006KT P6SM VCSH OVC070 TEMPO 0901/0903 30010G20KT -SN BKN035 FM090300 30015G25KT 6SM -SHSN BLSN BKN040 FM090700 30008KT P6SM SCT080 FM091800 VRB04KT P6SM FEW100
KEGE 
20nm E 
090151Z 0902/0924 30015G25KT 2SM -SHSN BLSN OVC060 TEMPO 0902/0903 3/4SM -SN BR BKN030 OVC050 FM090500 28006KT P6SM VCSH BKN035 FM090800 VRB04KT P6SM BKN050 FM091500 VRB04KT P6SM BKN060 FM091800 25004KT P6SM SCT060 BKN080
NOTAMs
Click for the latest NOTAMs
NOTAMs are issued by the DoD/FAA and will open in a separate window not controlled by AirNav.

 

 
 

Would you like to see your business listed on this page?

 If your business provides an interesting product or service to pilots, flight crews, aircraft, or users of the Valley View Hospital Heliport, you should consider listing it here.  To start the listing process, click on the button below
 
Add a business
 

Other Pages about Valley View Hospital Heliport

Update a link
 
Copyright © AirNav, LLC. All rights reserved. Privacy Policy  Contact